sensor_id;sensor_type;location;lat;lon;timestamp;P1;durP1;ratioP1;P2;durP2;ratioP2
29200;SDS011;16244;51.956;12.980;2022-09-03T00:01:13;2.23;;;0.70;;
29200;SDS011;16244;51.956;12.980;2022-09-03T00:03:45;2.50;;;0.60;;
29200;SDS011;16244;51.956;12.980;2022-09-03T00:06:17;1.40;;;0.60;;
29200;SDS011;16244;51.956;12.980;2022-09-03T00:08:50;1.50;;;0.73;;
29200;SDS011;16244;51.956;12.980;2022-09-03T00:11:26;10.93;;;0.60;;
29200;SDS011;16244;51.956;12.980;2022-09-03T00:13:58;2.27;;;0.50;;
29200;SDS011;16244;51.956;12.980;2022-09-03T00:16:30;2.30;;;0.90;;
29200;SDS011;16244;51.956;12.980;2022-09-03T00:19:03;1.93;;;0.90;;
29200;SDS011;16244;51.956;12.980;2022-09-03T00:21:34;3.70;;;0.63;;
29200;SDS011;16244;51.956;12.980;2022-09-03T00:24:06;4.23;;;0.60;;
29200;SDS011;16244;51.956;12.980;2022-09-03T00:26:39;1.70;;;0.60;;
29200;SDS011;16244;51.956;12.980;2022-09-03T00:29:10;3.47;;;0.67;;
29200;SDS011;16244;51.956;12.980;2022-09-03T00:31:43;1.30;;;0.60;;
29200;SDS011;16244;51.956;12.980;2022-09-03T00:34:14;1.00;;;0.50;;
29200;SDS011;16244;51.956;12.980;2022-09-03T00:36:47;3.83;;;0.70;;
29200;SDS011;16244;51.956;12.980;2022-09-03T00:39:15;1.30;;;0.70;;
29200;SDS011;16244;51.956;12.980;2022-09-03T00:41:50;0.83;;;0.60;;
29200;SDS011;16244;51.956;12.980;2022-09-03T00:44:34;1.57;;;0.60;;
29200;SDS011;16244;51.956;12.980;2022-09-03T00:47:14;1.03;;;0.60;;
29200;SDS011;16244;51.956;12.980;2022-09-03T00:49:52;2.30;;;0.60;;
29200;SDS011;16244;51.956;12.980;2022-09-03T00:52:32;2.10;;;1.23;;
29200;SDS011;16244;51.956;12.980;2022-09-03T00:55:12;1.73;;;0.80;;
29200;SDS011;16244;51.956;12.980;2022-09-03T00:57:53;2.17;;;0.80;;
29200;SDS011;16244;51.956;12.980;2022-09-03T01:00:31;0.80;;;0.60;;
29200;SDS011;16244;51.956;12.980;2022-09-03T01:03:04;0.80;;;0.70;;
29200;SDS011;16244;51.956;12.980;2022-09-03T01:05:37;2.40;;;0.90;;
29200;SDS011;16244;51.956;12.980;2022-09-03T01:08:26;2.70;;;0.70;;
29200;SDS011;16244;51.956;12.980;2022-09-03T01:11:06;2.17;;;0.60;;
29200;SDS011;16244;51.956;12.980;2022-09-03T01:13:45;1.57;;;0.50;;
29200;SDS011;16244;51.956;12.980;2022-09-03T01:16:20;3.43;;;0.50;;
29200;SDS011;16244;51.956;12.980;2022-09-03T01:18:59;1.00;;;0.90;;
29200;SDS011;16244;51.956;12.980;2022-09-03T01:21:42;1.07;;;0.70;;
29200;SDS011;16244;51.956;12.980;2022-09-03T01:24:32;3.03;;;0.47;;
29200;SDS011;16244;51.956;12.980;2022-09-03T01:27:17;1.00;;;0.70;;
29200;SDS011;16244;51.956;12.980;2022-09-03T01:29:57;5.43;;;0.60;;
29200;SDS011;16244;51.956;12.980;2022-09-03T01:32:31;0.90;;;0.77;;
29200;SDS011;16244;51.956;12.980;2022-09-03T01:35:09;0.80;;;0.60;;
29200;SDS011;16244;51.956;12.980;2022-09-03T01:37:46;0.80;;;0.63;;
29200;SDS011;16244;51.956;12.980;2022-09-03T01:40:26;0.70;;;0.60;;
29200;SDS011;16244;51.956;12.980;2022-09-03T01:43:04;1.53;;;0.80;;
29200;SDS011;16244;51.956;12.980;2022-09-03T01:45:43;2.30;;;0.70;;
29200;SDS011;16244;51.956;12.980;2022-09-03T01:48:20;0.70;;;0.60;;
29200;SDS011;16244;51.956;12.980;2022-09-03T01:51:02;1.57;;;0.90;;
29200;SDS011;16244;51.956;12.980;2022-09-03T01:53:40;1.00;;;0.60;;
29200;SDS011;16244;51.956;12.980;2022-09-03T01:56:26;4.83;;;0.77;;
29200;SDS011;16244;51.956;12.980;2022-09-03T01:59:03;5.53;;;0.73;;
29200;SDS011;16244;51.956;12.980;2022-09-03T02:01:40;1.43;;;0.70;;
29200;SDS011;16244;51.956;12.980;2022-09-03T02:04:15;1.13;;;1.03;;
29200;SDS011;16244;51.956;12.980;2022-09-03T02:06:47;1.83;;;0.97;;
29200;SDS011;16244;51.956;12.980;2022-09-03T02:09:15;3.13;;;0.60;;
29200;SDS011;16244;51.956;12.980;2022-09-03T02:11:43;0.80;;;0.60;;
29200;SDS011;16244;51.956;12.980;2022-09-03T02:14:15;1.37;;;0.77;;
29200;SDS011;16244;51.956;12.980;2022-09-03T02:16:44;0.90;;;0.80;;
29200;SDS011;16244;51.956;12.980;2022-09-03T02:19:12;4.73;;;0.70;;
29200;SDS011;16244;51.956;12.980;2022-09-03T02:21:43;2.40;;;0.60;;
29200;SDS011;16244;51.956;12.980;2022-09-03T02:24:13;1.57;;;0.60;;
29200;SDS011;16244;51.956;12.980;2022-09-03T02:26:40;2.33;;;0.90;;
29200;SDS011;16244;51.956;12.980;2022-09-03T02:29:07;1.17;;;0.70;;
29200;SDS011;16244;51.956;12.980;2022-09-03T02:31:35;1.27;;;0.80;;
29200;SDS011;16244;51.956;12.980;2022-09-03T02:34:03;1.77;;;0.90;;
29200;SDS011;16244;51.956;12.980;2022-09-03T02:36:31;1.80;;;0.77;;
29200;SDS011;16244;51.956;12.980;2022-09-03T02:39:01;0.73;;;0.70;;
29200;SDS011;16244;51.956;12.980;2022-09-03T02:41:28;1.17;;;1.07;;
29200;SDS011;16244;51.956;12.980;2022-09-03T02:43:57;0.97;;;0.70;;
29200;SDS011;16244;51.956;12.980;2022-09-03T02:46:29;1.60;;;0.90;;
29200;SDS011;16244;51.956;12.980;2022-09-03T02:49:00;1.13;;;0.70;;
29200;SDS011;16244;51.956;12.980;2022-09-03T02:51:31;7.23;;;0.80;;
29200;SDS011;16244;51.956;12.980;2022-09-03T02:53:59;1.13;;;0.70;;
29200;SDS011;16244;51.956;12.980;2022-09-03T02:56:26;0.90;;;0.80;;
29200;SDS011;16244;51.956;12.980;2022-09-03T02:58:54;1.20;;;0.80;;
29200;SDS011;16244;51.956;12.980;2022-09-03T03:01:21;1.33;;;0.87;;
29200;SDS011;16244;51.956;12.980;2022-09-03T03:03:49;1.10;;;0.70;;
29200;SDS011;16244;51.956;12.980;2022-09-03T03:06:16;5.43;;;0.90;;
29200;SDS011;16244;51.956;12.980;2022-09-03T03:08:47;3.73;;;0.80;;
29200;SDS011;16244;51.956;12.980;2022-09-03T03:11:14;0.73;;;0.70;;
29200;SDS011;16244;51.956;12.980;2022-09-03T03:13:42;1.63;;;0.97;;
29200;SDS011;16244;51.956;12.980;2022-09-03T03:16:10;1.33;;;0.93;;
29200;SDS011;16244;51.956;12.980;2022-09-03T03:18:39;2.20;;;0.70;;
29200;SDS011;16244;51.956;12.980;2022-09-03T03:21:07;2.70;;;0.70;;
29200;SDS011;16244;51.956;12.980;2022-09-03T03:23:36;1.00;;;0.70;;
29200;SDS011;16244;51.956;12.980;2022-09-03T03:26:06;0.70;;;0.60;;
29200;SDS011;16244;51.956;12.980;2022-09-03T03:28:35;8.80;;;2.40;;
29200;SDS011;16244;51.956;12.980;2022-09-03T03:31:05;6.77;;;0.80;;
29200;SDS011;16244;51.956;12.980;2022-09-03T03:33:32;1.83;;;0.90;;
29200;SDS011;16244;51.956;12.980;2022-09-03T03:36:02;0.70;;;0.70;;
29200;SDS011;16244;51.956;12.980;2022-09-03T03:38:30;1.07;;;0.90;;
29200;SDS011;16244;51.956;12.980;2022-09-03T03:40:57;1.27;;;0.80;;
29200;SDS011;16244;51.956;12.980;2022-09-03T03:43:26;1.80;;;0.70;;
29200;SDS011;16244;51.956;12.980;2022-09-03T03:45:56;1.63;;;0.93;;
29200;SDS011;16244;51.956;12.980;2022-09-03T03:48:24;0.80;;;0.70;;
29200;SDS011;16244;51.956;12.980;2022-09-03T03:50:51;1.10;;;0.80;;
29200;SDS011;16244;51.956;12.980;2022-09-03T03:53:18;1.93;;;0.70;;
29200;SDS011;16244;51.956;12.980;2022-09-03T03:55:53;3.90;;;1.00;;
29200;SDS011;16244;51.956;12.980;2022-09-03T03:58:20;1.30;;;0.80;;
29200;SDS011;16244;51.956;12.980;2022-09-03T04:00:49;0.73;;;0.60;;
29200;SDS011;16244;51.956;12.980;2022-09-03T04:03:16;0.70;;;0.70;;
29200;SDS011;16244;51.956;12.980;2022-09-03T04:05:53;5.43;;;1.93;;
29200;SDS011;16244;51.956;12.980;2022-09-03T04:08:20;1.27;;;0.90;;
29200;SDS011;16244;51.956;12.980;2022-09-03T04:10:48;1.50;;;1.00;;
29200;SDS011;16244;51.956;12.980;2022-09-03T04:13:15;6.43;;;0.87;;
29200;SDS011;16244;51.956;12.980;2022-09-03T04:15:42;1.00;;;0.90;;
29200;SDS011;16244;51.956;12.980;2022-09-03T04:18:10;2.50;;;0.90;;
29200;SDS011;16244;51.956;12.980;2022-09-03T04:20:38;4.00;;;1.00;;
29200;SDS011;16244;51.956;12.980;2022-09-03T04:23:05;1.37;;;0.93;;
29200;SDS011;16244;51.956;12.980;2022-09-03T04:25:32;1.20;;;0.87;;
29200;SDS011;16244;51.956;12.980;2022-09-03T04:28:00;1.57;;;1.00;;
29200;SDS011;16244;51.956;12.980;2022-09-03T04:30:28;0.80;;;0.80;;
29200;SDS011;16244;51.956;12.980;2022-09-03T04:32:55;1.73;;;1.60;;
29200;SDS011;16244;51.956;12.980;2022-09-03T04:35:24;1.77;;;1.00;;
29200;SDS011;16244;51.956;12.980;2022-09-03T04:37:53;3.13;;;0.80;;
29200;SDS011;16244;51.956;12.980;2022-09-03T04:40:21;2.30;;;0.80;;
29200;SDS011;16244;51.956;12.980;2022-09-03T04:42:48;0.80;;;0.80;;
29200;SDS011;16244;51.956;12.980;2022-09-03T04:45:16;0.80;;;0.80;;
29200;SDS011;16244;51.956;12.980;2022-09-03T04:47:44;2.30;;;0.90;;
29200;SDS011;16244;51.956;12.980;2022-09-03T04:50:20;7.67;;;0.70;;
29200;SDS011;16244;51.956;12.980;2022-09-03T04:52:49;2.97;;;1.10;;
29200;SDS011;16244;51.956;12.980;2022-09-03T04:55:16;0.80;;;0.70;;
29200;SDS011;16244;51.956;12.980;2022-09-03T04:57:43;2.50;;;0.80;;
29200;SDS011;16244;51.956;12.980;2022-09-03T05:00:11;2.00;;;0.83;;
29200;SDS011;16244;51.956;12.980;2022-09-03T05:02:38;0.80;;;0.80;;
29200;SDS011;16244;51.956;12.980;2022-09-03T05:05:06;1.10;;;0.80;;
29200;SDS011;16244;51.956;12.980;2022-09-03T05:07:33;1.73;;;0.90;;
29200;SDS011;16244;51.956;12.980;2022-09-03T05:10:06;0.80;;;0.80;;
29200;SDS011;16244;51.956;12.980;2022-09-03T05:12:37;7.17;;;1.70;;
29200;SDS011;16244;51.956;12.980;2022-09-03T05:15:05;1.97;;;1.30;;
29200;SDS011;16244;51.956;12.980;2022-09-03T05:17:32;10.63;;;3.33;;
29200;SDS011;16244;51.956;12.980;2022-09-03T05:19:59;1.53;;;1.43;;
29200;SDS011;16244;51.956;12.980;2022-09-03T05:22:26;2.37;;;2.27;;
29200;SDS011;16244;51.956;12.980;2022-09-03T05:24:53;2.70;;;1.50;;
29200;SDS011;16244;51.956;12.980;2022-09-03T05:27:22;5.40;;;1.80;;
29200;SDS011;16244;51.956;12.980;2022-09-03T05:29:49;5.10;;;2.27;;
29200;SDS011;16244;51.956;12.980;2022-09-03T05:32:16;6.43;;;1.70;;
29200;SDS011;16244;51.956;12.980;2022-09-03T05:34:43;1.93;;;1.13;;
29200;SDS011;16244;51.956;12.980;2022-09-03T05:37:10;9.00;;;1.40;;
29200;SDS011;16244;51.956;12.980;2022-09-03T05:39:38;2.07;;;1.40;;
29200;SDS011;16244;51.956;12.980;2022-09-03T05:42:05;1.33;;;1.20;;
29200;SDS011;16244;51.956;12.980;2022-09-03T05:44:33;3.47;;;1.20;;
29200;SDS011;16244;51.956;12.980;2022-09-03T05:47:00;2.73;;;1.87;;
29200;SDS011;16244;51.956;12.980;2022-09-03T05:49:28;2.93;;;1.60;;
29200;SDS011;16244;51.956;12.980;2022-09-03T05:51:56;6.10;;;1.83;;
29200;SDS011;16244;51.956;12.980;2022-09-03T05:54:23;3.77;;;2.57;;
29200;SDS011;16244;51.956;12.980;2022-09-03T05:56:50;3.03;;;1.43;;
29200;SDS011;16244;51.956;12.980;2022-09-03T05:59:17;1.37;;;1.20;;
29200;SDS011;16244;51.956;12.980;2022-09-03T06:01:46;2.10;;;1.57;;
29200;SDS011;16244;51.956;12.980;2022-09-03T06:04:14;3.07;;;1.30;;
29200;SDS011;16244;51.956;12.980;2022-09-03T06:06:42;1.60;;;1.00;;
29200;SDS011;16244;51.956;12.980;2022-09-03T06:09:12;6.80;;;3.60;;
29200;SDS011;16244;51.956;12.980;2022-09-03T06:11:42;1.57;;;1.43;;
29200;SDS011;16244;51.956;12.980;2022-09-03T06:14:11;1.40;;;1.00;;
29200;SDS011;16244;51.956;12.980;2022-09-03T06:16:40;1.90;;;1.67;;
29200;SDS011;16244;51.956;12.980;2022-09-03T06:19:10;2.90;;;1.57;;
29200;SDS011;16244;51.956;12.980;2022-09-03T06:21:39;1.53;;;1.43;;
29200;SDS011;16244;51.956;12.980;2022-09-03T06:24:08;4.40;;;1.20;;
29200;SDS011;16244;51.956;12.980;2022-09-03T06:26:36;6.97;;;2.30;;
29200;SDS011;16244;51.956;12.980;2022-09-03T06:29:03;3.83;;;3.00;;
29200;SDS011;16244;51.956;12.980;2022-09-03T06:31:30;2.03;;;1.60;;
29200;SDS011;16244;51.956;12.980;2022-09-03T06:33:58;2.90;;;1.30;;
29200;SDS011;16244;51.956;12.980;2022-09-03T06:36:26;2.00;;;1.07;;
29200;SDS011;16244;51.956;12.980;2022-09-03T06:38:54;7.23;;;0.97;;
29200;SDS011;16244;51.956;12.980;2022-09-03T06:41:22;5.40;;;1.17;;
29200;SDS011;16244;51.956;12.980;2022-09-03T06:43:51;1.20;;;0.93;;
29200;SDS011;16244;51.956;12.980;2022-09-03T06:46:20;3.37;;;1.00;;
29200;SDS011;16244;51.956;12.980;2022-09-03T06:48:48;1.20;;;0.90;;
29200;SDS011;16244;51.956;12.980;2022-09-03T06:51:17;2.70;;;1.00;;
29200;SDS011;16244;51.956;12.980;2022-09-03T06:53:47;5.17;;;1.13;;
29200;SDS011;16244;51.956;12.980;2022-09-03T06:56:15;5.00;;;1.40;;
29200;SDS011;16244;51.956;12.980;2022-09-03T06:58:44;4.47;;;1.47;;
29200;SDS011;16244;51.956;12.980;2022-09-03T07:01:13;1.80;;;1.00;;
29200;SDS011;16244;51.956;12.980;2022-09-03T07:03:42;1.17;;;0.93;;
29200;SDS011;16244;51.956;12.980;2022-09-03T07:06:11;5.00;;;1.10;;
29200;SDS011;16244;51.956;12.980;2022-09-03T07:08:39;4.80;;;1.17;;
29200;SDS011;16244;51.956;12.980;2022-09-03T07:11:09;2.30;;;1.20;;
29200;SDS011;16244;51.956;12.980;2022-09-03T07:13:38;1.00;;;0.80;;
29200;SDS011;16244;51.956;12.980;2022-09-03T07:16:08;9.10;;;1.17;;
29200;SDS011;16244;51.956;12.980;2022-09-03T07:18:36;5.33;;;1.13;;
29200;SDS011;16244;51.956;12.980;2022-09-03T07:21:04;3.47;;;0.90;;
29200;SDS011;16244;51.956;12.980;2022-09-03T07:23:33;2.73;;;0.83;;
29200;SDS011;16244;51.956;12.980;2022-09-03T07:26:04;2.37;;;0.93;;
29200;SDS011;16244;51.956;12.980;2022-09-03T07:28:36;4.83;;;1.20;;
29200;SDS011;16244;51.956;12.980;2022-09-03T07:31:05;4.10;;;1.10;;
29200;SDS011;16244;51.956;12.980;2022-09-03T07:33:36;1.70;;;1.00;;
29200;SDS011;16244;51.956;12.980;2022-09-03T07:36:03;5.37;;;0.87;;
29200;SDS011;16244;51.956;12.980;2022-09-03T07:38:32;5.87;;;1.03;;
29200;SDS011;16244;51.956;12.980;2022-09-03T07:41:00;7.70;;;1.03;;
29200;SDS011;16244;51.956;12.980;2022-09-03T07:43:32;8.03;;;1.10;;
29200;SDS011;16244;51.956;12.980;2022-09-03T07:46:01;4.03;;;2.07;;
29200;SDS011;16244;51.956;12.980;2022-09-03T07:48:29;3.17;;;1.50;;
29200;SDS011;16244;51.956;12.980;2022-09-03T07:50:59;8.67;;;1.40;;
29200;SDS011;16244;51.956;12.980;2022-09-03T07:53:27;4.43;;;1.00;;
29200;SDS011;16244;51.956;12.980;2022-09-03T07:55:59;2.30;;;1.93;;
29200;SDS011;16244;51.956;12.980;2022-09-03T07:58:27;3.83;;;2.87;;
29200;SDS011;16244;51.956;12.980;2022-09-03T08:00:55;6.10;;;1.30;;
29200;SDS011;16244;51.956;12.980;2022-09-03T08:03:24;4.37;;;1.20;;
29200;SDS011;16244;51.956;12.980;2022-09-03T08:05:51;2.13;;;0.90;;
29200;SDS011;16244;51.956;12.980;2022-09-03T08:08:18;3.00;;;1.03;;
29200;SDS011;16244;51.956;12.980;2022-09-03T08:10:45;18.33;;;3.77;;
29200;SDS011;16244;51.956;12.980;2022-09-03T08:13:12;58.87;;;19.00;;
29200;SDS011;16244;51.956;12.980;2022-09-03T08:15:39;8.90;;;1.33;;
29200;SDS011;16244;51.956;12.980;2022-09-03T08:18:08;9.10;;;2.33;;
29200;SDS011;16244;51.956;12.980;2022-09-03T08:20:37;3.83;;;1.00;;
29200;SDS011;16244;51.956;12.980;2022-09-03T08:23:04;3.60;;;1.20;;
29200;SDS011;16244;51.956;12.980;2022-09-03T08:25:31;14.17;;;3.60;;
29200;SDS011;16244;51.956;12.980;2022-09-03T08:27:58;2.30;;;0.90;;
29200;SDS011;16244;51.956;12.980;2022-09-03T08:30:26;10.50;;;1.60;;
29200;SDS011;16244;51.956;12.980;2022-09-03T08:32:53;7.60;;;0.80;;
29200;SDS011;16244;51.956;12.980;2022-09-03T08:35:21;7.30;;;1.10;;
29200;SDS011;16244;51.956;12.980;2022-09-03T08:37:49;9.13;;;0.80;;
29200;SDS011;16244;51.956;12.980;2022-09-03T08:40:18;4.33;;;1.30;;
29200;SDS011;16244;51.956;12.980;2022-09-03T08:42:56;8.10;;;0.70;;
29200;SDS011;16244;51.956;12.980;2022-09-03T08:45:30;9.33;;;1.00;;
29200;SDS011;16244;51.956;12.980;2022-09-03T08:48:02;9.23;;;0.60;;
29200;SDS011;16244;51.956;12.980;2022-09-03T08:50:33;6.80;;;0.87;;
29200;SDS011;16244;51.956;12.980;2022-09-03T08:53:07;11.70;;;3.33;;
29200;SDS011;16244;51.956;12.980;2022-09-03T08:55:38;6.30;;;2.77;;
29200;SDS011;16244;51.956;12.980;2022-09-03T08:58:12;41.60;;;1.13;;
29200;SDS011;16244;51.956;12.980;2022-09-03T09:00:41;2266.67;;;999.90;;
29200;SDS011;16244;51.956;12.980;2022-09-03T09:03:29;2266.67;;;999.90;;
29200;SDS011;16244;51.956;12.980;2022-09-03T09:06:06;2266.67;;;999.90;;
29200;SDS011;16244;51.956;12.980;2022-09-03T09:08:41;2266.67;;;653.37;;
29200;SDS011;16244;51.956;12.980;2022-09-03T09:11:17;2.97;;;0.60;;
29200;SDS011;16244;51.956;12.980;2022-09-03T09:13:52;4.40;;;0.60;;
29200;SDS011;16244;51.956;12.980;2022-09-03T09:16:27;3.20;;;0.60;;
29200;SDS011;16244;51.956;12.980;2022-09-03T09:19:03;3.13;;;0.67;;
29200;SDS011;16244;51.956;12.980;2022-09-03T09:21:39;5.93;;;0.90;;
29200;SDS011;16244;51.956;12.980;2022-09-03T09:24:21;4.10;;;0.60;;
29200;SDS011;16244;51.956;12.980;2022-09-03T09:26:51;14.43;;;2.30;;
29200;SDS011;16244;51.956;12.980;2022-09-03T09:29:26;5.20;;;0.98;;
29200;SDS011;16244;51.956;12.980;2022-09-03T09:31:57;17.70;;;0.80;;
29200;SDS011;16244;51.956;12.980;2022-09-03T09:34:24;4.60;;;0.60;;
29200;SDS011;16244;51.956;12.980;2022-09-03T09:36:53;4.97;;;0.65;;
29200;SDS011;16244;51.956;12.980;2022-09-03T09:39:22;7.63;;;0.80;;
29200;SDS011;16244;51.956;12.980;2022-09-03T09:41:56;6.00;;;0.70;;
29200;SDS011;16244;51.956;12.980;2022-09-03T09:44:24;26.10;;;0.98;;
29200;SDS011;16244;51.956;12.980;2022-09-03T09:47:00;12.88;;;0.85;;
29200;SDS011;16244;51.956;12.980;2022-09-03T09:49:31;5.50;;;0.70;;
29200;SDS011;16244;51.956;12.980;2022-09-03T09:52:01;8.77;;;0.60;;
29200;SDS011;16244;51.956;12.980;2022-09-03T09:54:32;5.25;;;0.68;;
29200;SDS011;16244;51.956;12.980;2022-09-03T09:57:00;6.30;;;0.93;;
29200;SDS011;16244;51.956;12.980;2022-09-03T09:59:29;8.65;;;1.08;;
29200;SDS011;16244;51.956;12.980;2022-09-03T10:02:02;9.48;;;0.88;;
29200;SDS011;16244;51.956;12.980;2022-09-03T10:04:36;14.57;;;1.33;;
29200;SDS011;16244;51.956;12.980;2022-09-03T10:07:15;12.65;;;0.88;;
29200;SDS011;16244;51.956;12.980;2022-09-03T10:09:58;7.60;;;0.82;;
29200;SDS011;16244;51.956;12.980;2022-09-03T10:12:27;7.82;;;0.70;;
29200;SDS011;16244;51.956;12.980;2022-09-03T10:15:02;6.75;;;0.95;;
29200;SDS011;16244;51.956;12.980;2022-09-03T10:17:41;8.93;;;1.58;;
29200;SDS011;16244;51.956;12.980;2022-09-03T10:20:14;7.53;;;1.05;;
29200;SDS011;16244;51.956;12.980;2022-09-03T10:22:59;8.38;;;1.13;;
29200;SDS011;16244;51.956;12.980;2022-09-03T10:25:35;7.50;;;0.83;;
29200;SDS011;16244;51.956;12.980;2022-09-03T10:28:06;7.07;;;0.93;;
29200;SDS011;16244;51.956;12.980;2022-09-03T10:30:40;4.17;;;0.90;;
29200;SDS011;16244;51.956;12.980;2022-09-03T10:33:22;6.83;;;2.57;;
29200;SDS011;16244;51.956;12.980;2022-09-03T10:35:55;6.20;;;2.50;;
29200;SDS011;16244;51.956;12.980;2022-09-03T10:38:30;3.27;;;1.00;;
29200;SDS011;16244;51.956;12.980;2022-09-03T10:41:05;5.53;;;0.80;;
29200;SDS011;16244;51.956;12.980;2022-09-03T10:43:44;2.87;;;0.80;;
29200;SDS011;16244;51.956;12.980;2022-09-03T10:46:33;3.63;;;0.80;;
29200;SDS011;16244;51.956;12.980;2022-09-03T10:49:19;5.00;;;1.00;;
29200;SDS011;16244;51.956;12.980;2022-09-03T10:51:58;3.60;;;1.10;;
29200;SDS011;16244;51.956;12.980;2022-09-03T10:54:36;10.30;;;3.07;;
29200;SDS011;16244;51.956;12.980;2022-09-03T10:57:17;7.53;;;1.40;;
29200;SDS011;16244;51.956;12.980;2022-09-03T11:00:07;6.82;;;0.90;;
29200;SDS011;16244;51.956;12.980;2022-09-03T11:02:46;8.60;;;0.98;;
29200;SDS011;16244;51.956;12.980;2022-09-03T11:05:29;3.42;;;0.80;;
29200;SDS011;16244;51.956;12.980;2022-09-03T11:08:16;5.85;;;1.52;;
29200;SDS011;16244;51.956;12.980;2022-09-03T11:11:07;3.72;;;1.55;;
29200;SDS011;16244;51.956;12.980;2022-09-03T11:14:08;4.72;;;1.23;;
29200;SDS011;16244;51.956;12.980;2022-09-03T11:16:53;12.85;;;1.35;;
29200;SDS011;16244;51.956;12.980;2022-09-03T11:19:35;4.27;;;0.90;;
29200;SDS011;16244;51.956;12.980;2022-09-03T11:22:10;7.00;;;0.90;;
29200;SDS011;16244;51.956;12.980;2022-09-03T11:24:42;6.10;;;2.30;;
29200;SDS011;16244;51.956;12.980;2022-09-03T11:27:31;10.87;;;1.10;;
29200;SDS011;16244;51.956;12.980;2022-09-03T11:33:24;7.67;;;1.03;;
29200;SDS011;16244;51.956;12.980;2022-09-03T11:35:56;2.40;;;1.00;;
29200;SDS011;16244;51.956;12.980;2022-09-03T11:38:26;6.30;;;1.20;;
29200;SDS011;16244;51.956;12.980;2022-09-03T11:41:10;4.10;;;1.30;;
29200;SDS011;16244;51.956;12.980;2022-09-03T11:43:39;3.50;;;1.73;;
29200;SDS011;16244;51.956;12.980;2022-09-03T11:46:26;3.80;;;1.00;;
29200;SDS011;16244;51.956;12.980;2022-09-03T11:48:55;10.53;;;1.37;;
29200;SDS011;16244;51.956;12.980;2022-09-03T11:51:34;15.57;;;1.37;;
29200;SDS011;16244;51.956;12.980;2022-09-03T11:54:06;11.13;;;1.70;;
29200;SDS011;16244;51.956;12.980;2022-09-03T11:56:50;7.50;;;1.13;;
29200;SDS011;16244;51.956;12.980;2022-09-03T11:59:36;2.57;;;1.00;;
29200;SDS011;16244;51.956;12.980;2022-09-03T12:02:35;7.33;;;1.00;;
29200;SDS011;16244;51.956;12.980;2022-09-03T12:05:23;6.50;;;1.07;;
29200;SDS011;16244;51.956;12.980;2022-09-03T12:08:20;6.33;;;1.30;;
29200;SDS011;16244;51.956;12.980;2022-09-03T12:11:13;3.70;;;1.60;;
29200;SDS011;16244;51.956;12.980;2022-09-03T12:13:56;3.73;;;0.90;;
29200;SDS011;16244;51.956;12.980;2022-09-03T12:16:40;4.00;;;0.90;;
29200;SDS011;16244;51.956;12.980;2022-09-03T12:19:24;9.73;;;1.17;;
29200;SDS011;16244;51.956;12.980;2022-09-03T12:22:01;5.27;;;1.30;;
29200;SDS011;16244;51.956;12.980;2022-09-03T12:24:30;3.73;;;1.30;;
29200;SDS011;16244;51.956;12.980;2022-09-03T12:27:02;6.90;;;1.80;;
29200;SDS011;16244;51.956;12.980;2022-09-03T12:29:30;13.13;;;1.40;;
29200;SDS011;16244;51.956;12.980;2022-09-03T12:32:07;15.77;;;1.40;;
29200;SDS011;16244;51.956;12.980;2022-09-03T12:34:42;18.03;;;1.30;;
29200;SDS011;16244;51.956;12.980;2022-09-03T12:37:38;17.70;;;1.40;;
29200;SDS011;16244;51.956;12.980;2022-09-03T12:40:17;14.20;;;1.30;;
29200;SDS011;16244;51.956;12.980;2022-09-03T12:42:49;18.03;;;2.03;;
29200;SDS011;16244;51.956;12.980;2022-09-03T12:45:19;8.67;;;0.80;;
29200;SDS011;16244;51.956;12.980;2022-09-03T12:47:47;9.47;;;1.00;;
29200;SDS011;16244;51.956;12.980;2022-09-03T12:50:39;15.17;;;1.27;;
29200;SDS011;16244;51.956;12.980;2022-09-03T12:53:21;10.53;;;1.20;;
29200;SDS011;16244;51.956;12.980;2022-09-03T12:55:51;13.30;;;1.27;;
29200;SDS011;16244;51.956;12.980;2022-09-03T12:58:22;9.10;;;1.37;;
29200;SDS011;16244;51.956;12.980;2022-09-03T13:00:53;9.27;;;1.00;;
29200;SDS011;16244;51.956;12.980;2022-09-03T13:03:43;9.43;;;1.27;;
29200;SDS011;16244;51.956;12.980;2022-09-03T13:06:17;16.60;;;1.47;;
29200;SDS011;16244;51.956;12.980;2022-09-03T13:08:47;10.60;;;1.07;;
29200;SDS011;16244;51.956;12.980;2022-09-03T13:11:18;9.53;;;0.90;;
29200;SDS011;16244;51.956;12.980;2022-09-03T13:13:54;8.17;;;1.37;;
29200;SDS011;16244;51.956;12.980;2022-09-03T13:19:57;2266.67;;;999.90;;
29200;SDS011;16244;51.956;12.980;2022-09-03T13:22:44;2200.00;;;395.00;;
29200;SDS011;16244;51.956;12.980;2022-09-03T13:25:24;2266.67;;;999.90;;
29200;SDS011;16244;51.956;12.980;2022-09-03T13:27:58;2266.67;;;999.90;;
29200;SDS011;16244;51.956;12.980;2022-09-03T13:30:37;2266.67;;;999.90;;
29200;SDS011;16244;51.956;12.980;2022-09-03T13:33:17;2266.67;;;999.90;;
29200;SDS011;16244;51.956;12.980;2022-09-03T13:35:48;2266.67;;;999.90;;
29200;SDS011;16244;51.956;12.980;2022-09-03T13:38:24;2266.67;;;999.90;;
29200;SDS011;16244;51.956;12.980;2022-09-03T13:40:59;2266.67;;;999.90;;
29200;SDS011;16244;51.956;12.980;2022-09-03T13:43:47;2266.67;;;999.90;;
29200;SDS011;16244;51.956;12.980;2022-09-03T13:46:22;2266.67;;;999.90;;
29200;SDS011;16244;51.956;12.980;2022-09-03T13:48:56;2266.67;;;999.90;;
29200;SDS011;16244;51.956;12.980;2022-09-03T13:51:46;2266.67;;;999.90;;
29200;SDS011;16244;51.956;12.980;2022-09-03T13:54:20;2266.67;;;999.90;;
29200;SDS011;16244;51.956;12.980;2022-09-03T13:56:53;2266.67;;;523.63;;
29200;SDS011;16244;51.956;12.980;2022-09-03T13:59:42;2266.67;;;876.17;;
29200;SDS011;16244;51.956;12.980;2022-09-03T14:02:22;2266.67;;;982.40;;
29200;SDS011;16244;51.956;12.980;2022-09-03T14:05:00;2266.67;;;999.90;;
29200;SDS011;16244;51.956;12.980;2022-09-03T14:07:47;2266.67;;;886.87;;
29200;SDS011;16244;51.956;12.980;2022-09-03T14:10:32;2266.67;;;999.90;;
29200;SDS011;16244;51.956;12.980;2022-09-03T14:13:44;2266.67;;;999.90;;
29200;SDS011;16244;51.956;12.980;2022-09-03T14:16:28;2266.67;;;634.40;;
29200;SDS011;16244;51.956;12.980;2022-09-03T14:19:04;2266.67;;;809.67;;
29200;SDS011;16244;51.956;12.980;2022-09-03T14:21:55;2266.67;;;994.13;;
29200;SDS011;16244;51.956;12.980;2022-09-03T14:24:43;232.47;;;164.73;;
29200;SDS011;16244;51.956;12.980;2022-09-03T14:27:22;557.90;;;420.83;;
29200;SDS011;16244;51.956;12.980;2022-09-03T14:29:52;187.23;;;71.70;;
29200;SDS011;16244;51.956;12.980;2022-09-03T14:32:29;726.77;;;386.83;;
29200;SDS011;16244;51.956;12.980;2022-09-03T14:35:11;534.20;;;311.50;;
29200;SDS011;16244;51.956;12.980;2022-09-03T14:37:52;218.17;;;97.10;;
29200;SDS011;16244;51.956;12.980;2022-09-03T14:40:39;515.23;;;442.17;;
29200;SDS011;16244;51.956;12.980;2022-09-03T14:43:22;133.00;;;35.80;;
29200;SDS011;16244;51.956;12.980;2022-09-03T14:46:08;264.70;;;89.97;;
29200;SDS011;16244;51.956;12.980;2022-09-03T14:49:01;133.90;;;37.03;;
29200;SDS011;16244;51.956;12.980;2022-09-03T14:51:56;380.00;;;254.80;;
29200;SDS011;16244;51.956;12.980;2022-09-03T14:54:40;159.03;;;68.27;;
29200;SDS011;16244;51.956;12.980;2022-09-03T15:00:41;534.47;;;333.60;;
29200;SDS011;16244;51.956;12.980;2022-09-03T15:03:46;209.47;;;110.33;;
29200;SDS011;16244;51.956;12.980;2022-09-03T15:06:30;440.27;;;308.50;;
29200;SDS011;16244;51.956;12.980;2022-09-03T15:09:17;291.57;;;164.70;;
29200;SDS011;16244;51.956;12.980;2022-09-03T15:11:53;888.93;;;380.73;;
29200;SDS011;16244;51.956;12.980;2022-09-03T15:14:26;679.47;;;434.23;;